Airfield :
LOGIN :

Register | Disclaimer

   EN    FR    IT 

 










Legend :    VFR   Marginal VFR   IFR   Intensive IFR   Very Intensive IFR
Visi :
Ceiling :
>= 8 km
>= 3000ft
5 to 8 km
1000 to 3000 ft
1500m to 5 km
500 to 1000 ft
800 to 1500m
200 to 500 ft
< 800m
< 200 ft
Symbols :   Thunderstorms  Fog  Heavy snow  Heavy precipitations  Wind > 20 kt
SIGMETs :     Misc.  Thunderstorms  Icing  Turbulence  Mountain Waves  Volcanic Ashes







- Airport Elevation : 122 ft
- IATA code : TXL


EDDT - Berlin Tegel Int.

CURRENT METAR :
  • 100850Z 27016KT 240V300 9999 SCT019 04/01 Q1008 TEMPO 27020G30KT

EXPIRED METARs :
  • 100820Z 27014KT 9999 SCT017 BKN029 05/01 Q1008 TEMPO 27020G30KT
  • 100750Z 27019KT 9999 SCT017 BKN029 05/01 Q1008 TEMPO 27020G30KT
  • 100720Z 28015KT 250V310 9999 BKN017 04/01 Q1008 TEMPO 28020G30KT
  • 100650Z 28016KT 250V310 9999 BKN017 04/01 Q1008 TEMPO 28020G30KT
  • 100620Z 28014KT 250V310 9999 BKN018 05/01 Q1007 TEMPO 28020G30KT

TAF TAF EDDT
Valid from the 10 at 06:00 until the 11 at 06:00 UTC


100500Z 1006/1106 28020G30KT 9999 BKN025
TEMPO 1013/1020 SHRASN BKN020CB
PROB30
TEMPO 1013/1017 -TSRAGS
BECMG 1015/1019 27013KT
BECMG 1102/1106 28015G25KT RASN BKN012
No reported NOTAMs for that airfield.



MET'MAP, your aeronautical weather chart ! - Copyright ORBIFLY December 2007 - Disclaimer

ORBIFLY MET'MAP TEAM :

Programming & Development : Alexandra Zaïnal
Concept & Development : Baudouin d'Aumeries
Co-Development & Prog : Marc-Olivier Méhu
Technical & hardware support : Manuel Goepfert

Contact : metmap@orbifly.com




SOURCES & CREDITS :

   NOAA